Archival Weather

Fukuoka

Fukuoka, Japan (RJFF)

Report from: Tuesday, August 16, 2022 12:00 PM JST
Current time: Sunday, November 27, 2022 6:34 PM JST

Current weather
Weather history
Weather forecast

Present weatherThunderstorm, VCSH, light thunderstorm with rain
Temperature29.0°C (84.2°F)
Heat index36.8°C (98.2°F)
Dew point27.0°C (80.6°F)
Winds 10 kts (5.1 m/s, 11.5 mph) Vrb
Wind gusts 25 kts (12.9 m/s, 28.8 mph)
Winds variableWinds variable from Southeast (130°) to South-Southwest (200°)
Visibility6.2 mi. (10 km)
Clouds Few clouds 1,000 ft. (305 m)
Few clouds with cumulonimbus 2,500 ft. (762 m)
Scattered clouds 3,500 ft. (1,067 m)
Ceiling: Broken clouds 4,500 ft. (1,372 m)
Altimeter29.74 in.Hg (1007 mB)
Relative humidity89 %
Density altitude2,292 ft. (699 m)
Flight conditions Visual Meteorological Conditions
Raw dataRJFF 160300Z 15010KT 130V200 9999 TS VCSH FEW010 FEW025CB SCT035 BKN045 29/27 Q1007 TEMPO 18015G25KT 4000 -TSRA BR
An error has occurred. This application may no longer respond until reloaded. Reload 🗙